Time;durP1;ratioP1;P1;durP2;ratioP2;P2;SDS_P1;SDS_P2;PMS_P1;PMS_P2;Temp;Humidity;BMP_temperature;BMP_pressure;BME280_temperature;BME280_humidity;BME280_pressure;Samples;Min_cycle;Max_cycle;Signal;HPM_P1;HPM_P2
2022/02/06 00:01:42;;;;;;;4.87;2.83;;;2.70;99.90;;;;;;459854;258;27464;-70
2022/02/06 00:03:43;;;;;;;7.12;2.53;;;2.70;99.90;;;;;;459845;258;27582;-69
2022/02/06 00:05:47;;;;;;;8.30;3.00;;;2.70;99.90;;;;;;459892;258;27507;-69
2022/02/06 00:07:47;;;;;;;6.30;2.53;;;2.70;99.90;;;;;;459890;258;27567;-69
2022/02/06 00:09:47;;;;;;;10.13;2.85;;;2.80;99.90;;;;;;459880;258;27482;-69
2022/02/06 00:11:48;;;;;;;4.65;2.85;;;2.80;99.90;;;;;;459894;258;27479;-69
2022/02/06 00:13:50;;;;;;;5.60;2.70;;;2.80;99.90;;;;;;459876;258;27510;-69
2022/02/06 00:15:51;;;;;;;7.78;3.00;;;2.80;99.90;;;;;;459872;258;27507;-69
2022/02/06 00:17:52;;;;;;;4.03;2.47;;;2.90;99.90;;;;;;459868;258;27556;-69
2022/02/06 00:19:53;;;;;;;3.95;2.67;;;2.90;99.90;;;;;;459831;254;27997;-69
2022/02/06 00:21:55;;;;;;;9.32;2.60;;;2.90;99.90;;;;;;459859;258;27907;-69
2022/02/06 00:23:56;;;;;;;4.53;2.67;;;2.90;99.90;;;;;;459868;258;28025;-69
2022/02/06 00:26:03;;;;;;;6.25;3.10;;;2.90;99.90;;;;;;459880;258;27621;-70
2022/02/06 00:28:10;;;;;;;5.25;2.65;;;3.00;99.90;;;;;;459875;258;27542;-69
2022/02/06 00:30:12;;;;;;;5.80;2.95;;;3.00;99.90;;;;;;459902;258;27591;-69
2022/02/06 00:32:08;;;;;;;6.90;2.95;;;3.00;99.90;;;;;;459884;258;27527;-69
2022/02/06 00:42:43;;;;;;;9.90;2.72;;;3.10;99.90;;;;;;451539;263;27581;-69
2022/02/06 00:44:44;;;;;;;6.55;2.60;;;3.10;99.90;;;;;;451578;263;27605;-69
2022/02/06 00:46:46;;;;;;;4.45;3.20;;;3.10;99.90;;;;;;451558;263;28267;-69
2022/02/06 00:48:53;;;;;;;4.85;2.70;;;3.20;99.90;;;;;;451558;263;28165;-69
2022/02/06 00:50:53;;;;;;;3.90;2.40;;;3.20;99.90;;;;;;451645;262;28206;-69
2022/02/06 00:53:05;;;;;;;8.15;2.87;;;3.20;99.90;;;;;;451614;261;28354;-69
2022/02/06 00:54:51;;;;;;;5.82;2.40;;;3.20;99.90;;;;;;451734;262;27569;-69
2022/02/06 00:56:52;;;;;;;8.10;3.20;;;3.30;99.90;;;;;;451590;263;27613;-69
2022/02/06 00:58:53;;;;;;;10.43;2.87;;;3.30;99.90;;;;;;451560;263;27573;-69
2022/02/06 01:00:54;;;;;;;12.57;3.00;;;3.30;99.90;;;;;;451539;263;27758;-69
2022/02/06 01:02:56;;;;;;;3.20;2.37;;;3.30;99.90;;;;;;451574;263;27664;-69
2022/02/06 01:04:57;;;;;;;5.03;2.50;;;3.20;99.90;;;;;;451558;263;27588;-70
2022/02/06 01:06:58;;;;;;;9.55;2.78;;;3.30;99.90;;;;;;451586;263;27594;-69
2022/02/06 01:08:59;;;;;;;7.60;3.35;;;3.30;99.90;;;;;;451577;263;27561;-69
2022/02/06 01:11:05;;;;;;;6.37;2.80;;;3.30;99.90;;;;;;451539;263;27785;-69
2022/02/06 01:13:16;;;;;;;7.10;3.22;;;3.30;99.90;;;;;;455809;258;28042;-69
2022/02/06 01:15:08;;;;;;;4.35;2.50;;;3.30;99.90;;;;;;460335;258;27931;-69
2022/02/06 01:17:54;;;;;;;8.05;2.80;;;3.30;99.90;;;;;;459867;258;27995;-69
2022/02/06 01:19:14;;;;;;;6.50;2.90;;;3.30;99.90;;;;;;457072;258;27484;-70
2022/02/06 01:21:26;;;;;;;8.35;2.67;;;3.30;99.90;;;;;;459851;258;27514;-69
2022/02/06 01:23:28;;;;;;;8.32;2.87;;;3.30;99.90;;;;;;459900;258;27919;-69
2022/02/06 01:25:35;;;;;;;5.25;3.15;;;3.30;99.90;;;;;;459859;258;27513;-69
2022/02/06 01:27:47;;;;;;;5.03;3.00;;;3.30;99.90;;;;;;459686;258;28000;-69
2022/02/06 01:33:51;;;;;;;7.35;3.10;;;3.30;99.90;;;;;;459870;258;27935;-69
2022/02/06 01:35:57;;;;;;;9.45;2.95;;;3.30;99.90;;;;;;459844;258;27502;-69
2022/02/06 01:37:59;;;;;;;4.68;2.90;;;3.30;99.90;;;;;;459877;258;27466;-70
2022/02/06 01:40:07;;;;;;;7.75;2.97;;;3.40;99.90;;;;;;459864;258;27615;-69
2022/02/06 01:42:00;;;;;;;14.15;2.97;;;3.40;99.90;;;;;;459626;258;28045;-69
2022/02/06 01:44:06;;;;;;;11.85;2.65;;;3.30;99.90;;;;;;459865;258;27475;-70
2022/02/06 02:08:39;;;;;;;5.72;2.70;;;3.50;99.90;;;;;;459873;258;27963;-69
2022/02/06 02:14:38;;;;;;;2.72;2.30;;;3.50;99.90;;;;;;459883;257;27494;-69
2022/02/06 02:28:00;;;;;;;5.82;2.92;;;3.60;99.90;;;;;;460307;258;27553;-69
2022/02/06 02:44:36;;;;;;;7.82;2.40;;;3.70;99.90;;;;;;460313;258;27594;-69
2022/02/06 02:47:52;;;;;;;7.28;2.65;;;3.70;99.90;;;;;;459853;258;27599;-69
2022/02/06 02:49:59;;;;;;;4.95;2.78;;;3.70;99.90;;;;;;459824;258;27499;-69
2022/02/06 02:52:03;;;;;;;4.72;2.50;;;3.70;99.90;;;;;;459839;258;27599;-69
2022/02/06 02:54:04;;;;;;;12.50;3.25;;;3.70;99.90;;;;;;459840;258;27552;-69
2022/02/06 02:56:21;;;;;;;6.62;3.00;;;3.80;99.90;;;;;;459834;258;27464;-69
2022/02/06 03:00:35;;;;;;;6.97;2.75;;;3.80;99.90;;;;;;459869;258;27473;-69
2022/02/06 03:02:27;;;;;;;3.70;2.10;;;3.80;99.90;;;;;;459870;258;27539;-69
2022/02/06 03:04:29;;;;;;;9.52;2.72;;;3.80;99.90;;;;;;459833;258;27526;-69
2022/02/06 03:06:30;;;;;;;5.65;2.33;;;3.70;99.90;;;;;;459870;258;27499;-69
2022/02/06 03:08:33;;;;;;;6.65;2.67;;;3.80;99.90;;;;;;459869;258;27475;-69
2022/02/06 03:10:32;;;;;;;7.10;3.08;;;3.80;99.90;;;;;;459863;258;27575;-69
2022/02/06 03:12:35;;;;;;;5.28;2.72;;;3.80;99.90;;;;;;459857;258;27995;-69
2022/02/06 03:15:02;;;;;;;7.40;2.50;;;3.80;99.90;;;;;;459822;258;27974;-69
2022/02/06 03:16:48;;;;;;;5.45;2.92;;;3.80;99.90;;;;;;458863;258;27470;-69
2022/02/06 03:18:57;;;;;;;9.80;2.47;;;3.80;99.90;;;;;;459905;258;27606;-69
2022/02/06 03:20:53;;;;;;;8.10;2.12;;;3.80;99.90;;;;;;459921;258;27599;-69
2022/02/06 03:22:52;;;;;;;5.78;2.95;;;3.80;99.90;;;;;;459900;258;27968;-69
2022/02/06 03:24:59;;;;;;;4.10;2.33;;;3.80;99.90;;;;;;459864;258;28091;-69
2022/02/06 03:26:54;;;;;;;6.70;2.53;;;3.80;99.90;;;;;;459895;258;28164;-69
2022/02/06 03:28:56;;;;;;;9.57;2.92;;;3.80;99.90;;;;;;459891;258;29063;-69
2022/02/06 03:30:57;;;;;;;4.57;2.40;;;3.80;99.90;;;;;;459884;258;27601;-69
2022/02/06 03:32:58;;;;;;;4.05;2.05;;;3.80;99.90;;;;;;459898;258;27459;-69
2022/02/06 03:35:00;;;;;;;8.82;3.12;;;3.80;99.90;;;;;;459845;258;27606;-70
2022/02/06 03:37:01;;;;;;;4.22;2.20;;;3.80;99.90;;;;;;459895;258;27492;-69
2022/02/06 03:39:02;;;;;;;6.07;2.62;;;3.80;99.90;;;;;;459886;258;27477;-69
2022/02/06 03:41:08;;;;;;;10.23;2.50;;;3.80;99.90;;;;;;459858;258;27523;-69
2022/02/06 03:45:11;;;;;;;12.52;2.50;;;3.80;99.90;;;;;;459881;258;27507;-69
2022/02/06 03:47:18;;;;;;;11.30;2.95;;;3.90;99.90;;;;;;459876;258;27464;-69
2022/02/06 03:49:26;;;;;;;5.87;2.22;;;3.90;99.90;;;;;;459912;258;27554;-69
2022/02/06 03:51:29;;;;;;;7.68;2.47;;;3.90;99.90;;;;;;459915;258;27602;-70
2022/02/06 03:53:22;;;;;;;9.48;2.42;;;3.90;99.90;;;;;;459697;258;27564;-69
2022/02/06 03:55:20;;;;;;;7.32;2.80;;;3.90;99.90;;;;;;459853;258;27565;-69
2022/02/06 03:57:22;;;;;;;5.82;2.35;;;3.90;99.90;;;;;;459855;258;27931;-69
2022/02/06 03:59:23;;;;;;;6.15;3.05;;;3.90;99.90;;;;;;459904;258;27990;-69
2022/02/06 04:01:24;;;;;;;7.37;2.70;;;3.90;99.90;;;;;;459887;258;28008;-69
2022/02/06 04:03:25;;;;;;;10.70;3.22;;;3.80;99.90;;;;;;459867;258;28062;-69
2022/02/06 04:05:27;;;;;;;3.20;2.40;;;3.80;99.90;;;;;;459843;258;27472;-69
2022/02/06 04:07:28;;;;;;;6.28;2.72;;;3.80;99.90;;;;;;459895;258;27561;-69
2022/02/06 04:09:35;;;;;;;7.10;2.58;;;3.90;99.90;;;;;;459886;258;27573;-70
2022/02/06 04:11:46;;;;;;;7.87;2.80;;;3.80;99.90;;;;;;459869;258;27503;-69
2022/02/06 04:13:40;;;;;;;4.35;2.50;;;3.80;99.90;;;;;;459903;258;27507;-70
2022/02/06 04:15:40;;;;;;;15.60;2.83;;;3.80;99.90;;;;;;459886;258;27542;-70
2022/02/06 04:17:46;;;;;;;9.48;2.70;;;3.80;99.90;;;;;;459855;258;27495;-69
2022/02/06 04:19:39;;;;;;;6.32;2.83;;;3.80;99.90;;;;;;459874;258;27525;-69
2022/02/06 04:21:40;;;;;;;6.35;2.90;;;3.80;99.90;;;;;;459853;258;27969;-69
2022/02/06 04:23:41;;;;;;;7.20;3.22;;;3.80;99.90;;;;;;459860;258;28131;-70
2022/02/06 04:25:42;;;;;;;10.52;2.83;;;3.80;99.90;;;;;;459866;258;29021;-69
2022/02/06 04:27:44;;;;;;;3.72;2.37;;;3.80;99.90;;;;;;459881;258;27506;-69
2022/02/06 04:29:47;;;;;;;7.80;2.80;;;3.90;99.90;;;;;;459875;258;27494;-69
2022/02/06 04:31:50;;;;;;;9.85;3.33;;;3.90;99.90;;;;;;459838;258;27593;-69
2022/02/06 04:33:50;;;;;;;6.70;2.70;;;3.80;99.90;;;;;;459865;258;27484;-69
2022/02/06 04:35:51;;;;;;;5.90;2.70;;;3.80;99.90;;;;;;459888;258;27491;-69
2022/02/06 04:40:20;;;;;;;9.07;3.30;;;3.80;99.90;;;;;;459858;258;27455;-69
2022/02/06 04:42:34;;;;;;;5.32;2.40;;;3.80;99.90;;;;;;460153;258;27642;-69
2022/02/06 04:44:46;;;;;;;8.15;2.87;;;3.80;99.90;;;;;;459900;258;27545;-70
2022/02/06 05:11:33;;;;;;;6.60;2.60;;;3.70;99.90;;;;;;451526;263;28889;-69
2022/02/06 05:13:42;;;;;;;3.60;2.60;;;3.70;99.90;;;;;;451867;262;28193;-69
2022/02/06 05:15:21;;;;;;;8.02;2.60;;;3.70;99.90;;;;;;451878;262;28079;-69
2022/02/06 05:33:07;;;;;;;4.65;2.30;;;3.60;99.90;;;;;;459854;258;27499;-70
2022/02/06 05:34:47;;;;;;;5.40;2.70;;;3.60;99.90;;;;;;458344;258;27586;-69
2022/02/06 05:36:48;;;;;;;7.28;2.70;;;3.60;99.90;;;;;;459867;258;27482;-69
2022/02/06 05:38:49;;;;;;;3.95;2.33;;;3.60;99.90;;;;;;459858;258;27510;-70
2022/02/06 05:40:51;;;;;;;7.82;3.08;;;3.60;99.90;;;;;;459853;258;27490;-69
2022/02/06 05:42:52;;;;;;;7.37;2.53;;;3.60;99.90;;;;;;459888;258;27464;-69
2022/02/06 05:44:55;;;;;;;5.00;2.53;;;3.60;99.90;;;;;;459860;258;27514;-69
2022/02/06 05:46:54;;;;;;;10.02;2.53;;;3.60;99.90;;;;;;459859;258;28006;-70
2022/02/06 05:48:56;;;;;;;3.75;2.05;;;3.70;99.90;;;;;;459851;258;28093;-70
2022/02/06 05:50:57;;;;;;;5.10;3.08;;;3.70;99.90;;;;;;459868;258;28272;-69
2022/02/06 05:52:58;;;;;;;4.47;2.35;;;3.70;99.90;;;;;;459876;258;27954;-69
2022/02/06 05:54:59;;;;;;;5.30;2.97;;;3.60;99.90;;;;;;459853;258;27491;-69
2022/02/06 05:57:01;;;;;;;4.37;2.03;;;3.70;99.90;;;;;;459860;258;27562;-69
2022/02/06 05:59:02;;;;;;;13.40;3.30;;;3.60;99.90;;;;;;459865;258;27491;-69
2022/02/06 06:01:03;;;;;;;4.45;2.33;;;3.60;99.90;;;;;;459895;258;27491;-69
2022/02/06 06:03:08;;;;;;;4.53;2.40;;;3.60;99.90;;;;;;459882;258;27532;-69
2022/02/06 06:05:09;;;;;;;10.20;2.50;;;3.70;99.90;;;;;;459857;258;27995;-70
2022/02/06 06:07:10;;;;;;;5.37;2.60;;;3.60;99.90;;;;;;459875;258;28077;-69
2022/02/06 06:09:11;;;;;;;8.40;3.00;;;3.60;99.90;;;;;;459844;258;27935;-69
2022/02/06 06:11:12;;;;;;;5.00;2.70;;;3.60;99.90;;;;;;459844;258;27482;-69
2022/02/06 06:13:14;;;;;;;5.37;2.80;;;3.60;99.90;;;;;;459882;258;27629;-69
2022/02/06 06:15:15;;;;;;;4.47;2.00;;;3.60;99.90;;;;;;459872;258;27536;-69
2022/02/06 06:17:16;;;;;;;6.03;2.97;;;3.60;99.90;;;;;;459873;258;27505;-69
2022/02/06 06:19:17;;;;;;;4.53;2.33;;;3.60;99.90;;;;;;459833;258;27482;-70
2022/02/06 06:21:20;;;;;;;3.67;2.30;;;3.60;99.90;;;;;;459848;258;27480;-69
2022/02/06 06:23:23;;;;;;;8.07;2.40;;;3.60;99.90;;;;;;459871;258;27527;-69
2022/02/06 06:25:23;;;;;;;8.02;2.70;;;3.60;99.90;;;;;;459842;258;27466;-70
2022/02/06 06:27:22;;;;;;;6.50;2.60;;;3.70;99.90;;;;;;459849;258;27568;-69
2022/02/06 06:29:24;;;;;;;5.05;2.40;;;3.70;99.90;;;;;;459847;258;27468;-69
2022/02/06 06:31:26;;;;;;;5.15;2.60;;;3.60;99.90;;;;;;459897;258;27912;-69
2022/02/06 06:33:26;;;;;;;8.35;2.80;;;3.70;99.90;;;;;;459865;258;27989;-69
2022/02/06 06:35:29;;;;;;;12.45;2.70;;;3.70;99.90;;;;;;459857;258;29143;-69
2022/02/06 06:37:29;;;;;;;5.30;2.62;;;3.70;99.90;;;;;;459845;258;27527;-69
2022/02/06 06:39:40;;;;;;;7.95;2.60;;;3.70;99.90;;;;;;459854;258;27571;-69
2022/02/06 06:41:34;;;;;;;6.72;2.62;;;3.70;99.90;;;;;;459679;258;27583;-69
2022/02/06 06:43:35;;;;;;;8.45;2.70;;;3.80;99.90;;;;;;459901;258;27452;-69
2022/02/06 06:45:36;;;;;;;2.80;2.58;;;3.80;99.90;;;;;;459855;258;27515;-69
2022/02/06 06:47:37;;;;;;;3.37;2.33;;;3.80;99.90;;;;;;459853;258;27524;-70
2022/02/06 06:49:39;;;;;;;6.87;2.70;;;3.80;99.90;;;;;;459868;258;27506;-69
2022/02/06 06:51:40;;;;;;;5.65;2.30;;;3.80;99.90;;;;;;459885;258;27470;-70
2022/02/06 06:53:44;;;;;;;11.80;2.87;;;3.80;99.90;;;;;;459907;258;27452;-69
2022/02/06 06:55:45;;;;;;;4.40;2.30;;;3.90;99.90;;;;;;459925;258;27546;-69
2022/02/06 06:57:52;;;;;;;5.95;2.62;;;3.90;99.90;;;;;;459902;258;27915;-69
2022/02/06 07:01:50;;;;;;;4.85;2.65;;;3.90;99.90;;;;;;459875;258;28179;-69
2022/02/06 07:03:47;;;;;;;3.08;2.10;;;3.90;99.90;;;;;;459880;258;28085;-69
2022/02/06 07:05:49;;;;;;;7.12;2.97;;;4.00;99.90;;;;;;459849;258;27590;-69
2022/02/06 07:07:50;;;;;;;5.25;2.35;;;4.00;99.90;;;;;;459836;258;27458;-69
2022/02/06 07:09:51;;;;;;;4.82;2.87;;;4.00;99.90;;;;;;459837;258;27611;-69
2022/02/06 07:11:53;;;;;;;6.30;2.30;;;4.00;99.90;;;;;;459750;258;27526;-70
2022/02/06 07:13:56;;;;;;;5.95;2.20;;;4.00;99.90;;;;;;459736;258;27521;-69
2022/02/06 07:15:56;;;;;;;12.57;2.80;;;4.00;99.90;;;;;;459699;258;27456;-69
2022/02/06 07:17:58;;;;;;;9.38;2.45;;;4.00;99.90;;;;;;459702;258;28005;-69
2022/02/06 07:19:58;;;;;;;5.95;2.72;;;4.00;99.90;;;;;;459678;258;27920;-69
2022/02/06 07:22:00;;;;;;;4.60;2.53;;;4.00;99.90;;;;;;459811;258;28080;-70
2022/02/06 07:24:01;;;;;;;8.10;3.37;;;4.10;99.90;;;;;;459879;258;29145;-70
2022/02/06 07:26:06;;;;;;;4.43;2.22;;;4.00;99.90;;;;;;459877;258;27524;-69
2022/02/06 07:28:03;;;;;;;11.63;2.85;;;4.10;99.90;;;;;;459891;258;27503;-69
2022/02/06 07:30:06;;;;;;;7.00;2.70;;;4.10;99.90;;;;;;459879;258;27455;-69
2022/02/06 07:32:06;;;;;;;4.12;2.22;;;4.10;99.90;;;;;;459872;258;27486;-70
2022/02/06 07:34:07;;;;;;;5.60;2.40;;;4.10;99.90;;;;;;459901;258;27602;-69
2022/02/06 07:36:08;;;;;;;7.47;2.72;;;4.10;99.90;;;;;;459883;258;27538;-69
2022/02/06 07:38:11;;;;;;;6.68;2.60;;;4.10;99.90;;;;;;459860;258;27519;-70
2022/02/06 07:40:11;;;;;;;10.95;3.08;;;4.10;99.90;;;;;;459847;258;27834;-70
2022/02/06 07:42:12;;;;;;;6.00;2.95;;;4.10;99.90;;;;;;459899;258;27466;-69
2022/02/06 07:44:13;;;;;;;4.95;2.47;;;4.10;99.90;;;;;;459886;258;27966;-69
2022/02/06 07:46:18;;;;;;;12.43;2.87;;;4.10;99.90;;;;;;459862;258;28061;-70
2022/02/06 07:48:17;;;;;;;4.37;2.30;;;4.10;99.90;;;;;;459858;258;28077;-70
2022/02/06 07:50:17;;;;;;;4.37;2.65;;;4.10;99.90;;;;;;459886;258;27518;-70
2022/02/06 07:52:18;;;;;;;8.52;2.65;;;4.10;99.90;;;;;;459854;258;27462;-70
2022/02/06 07:54:20;;;;;;;12.00;3.12;;;4.10;99.90;;;;;;459860;258;27495;-69
2022/02/06 07:56:21;;;;;;;7.32;2.70;;;4.10;99.90;;;;;;459868;258;27931;-70
2022/02/06 07:58:22;;;;;;;5.68;2.12;;;4.10;99.90;;;;;;459849;258;28069;-70
2022/02/06 08:00:23;;;;;;;2.00;1.90;;;4.10;99.90;;;;;;459891;258;29157;-69
2022/02/06 08:02:25;;;;;;;3.28;2.40;;;4.10;99.90;;;;;;459873;258;27946;-70
2022/02/06 08:04:26;;;;;;;5.30;2.80;;;4.10;99.90;;;;;;459885;258;27492;-70
2022/02/06 08:06:27;;;;;;;5.10;2.15;;;4.00;99.90;;;;;;459839;258;27511;-70
2022/02/06 08:08:28;;;;;;;3.08;2.65;;;4.00;99.90;;;;;;459896;258;27536;-70
2022/02/06 08:10:30;;;;;;;6.65;3.05;;;4.00;99.90;;;;;;459886;258;27487;-70
2022/02/06 08:12:34;;;;;;;5.93;3.00;;;4.00;99.90;;;;;;459876;258;27460;-70
2022/02/06 08:16:52;;;;;;;5.25;2.60;;;3.90;99.90;;;;;;459874;258;27554;-69
2022/02/06 08:18:54;;;;;;;4.95;2.80;;;3.90;99.90;;;;;;460343;258;27494;-70
2022/02/06 08:20:54;;;;;;;4.00;2.80;;;3.90;99.90;;;;;;459852;258;27575;-69
2022/02/06 08:22:55;;;;;;;4.15;2.58;;;3.90;99.90;;;;;;459857;258;27472;-70
2022/02/06 08:24:57;;;;;;;5.15;2.83;;;3.90;99.90;;;;;;459873;258;28057;-69
2022/02/06 08:26:58;;;;;;;5.97;3.05;;;4.00;99.90;;;;;;459882;258;28010;-69
2022/02/06 08:29:01;;;;;;;5.03;2.80;;;4.00;99.90;;;;;;459872;258;27934;-70
2022/02/06 08:31:02;;;;;;;10.63;3.10;;;4.00;99.90;;;;;;459858;258;27965;-69
2022/02/06 08:33:02;;;;;;;6.03;3.90;;;4.00;99.90;;;;;;459839;258;27470;-70
2022/02/06 08:35:03;;;;;;;5.07;3.17;;;4.00;99.90;;;;;;459859;258;27543;-69
2022/02/06 08:37:04;;;;;;;4.78;2.58;;;4.00;99.90;;;;;;459878;258;27579;-69
2022/02/06 08:39:05;;;;;;;4.65;2.50;;;4.00;99.90;;;;;;459879;258;27458;-70
2022/02/06 08:41:07;;;;;;;5.12;2.90;;;4.10;99.90;;;;;;459878;258;27499;-70
2022/02/06 08:43:09;;;;;;;8.90;3.10;;;4.10;99.90;;;;;;459850;258;27495;-69
2022/02/06 08:45:12;;;;;;;3.50;2.65;;;4.10;99.90;;;;;;459869;258;27462;-70
2022/02/06 08:47:13;;;;;;;7.25;2.55;;;4.10;99.90;;;;;;459870;258;27479;-69
2022/02/06 08:49:17;;;;;;;7.20;3.30;;;4.10;99.90;;;;;;459871;258;27536;-70
2022/02/06 08:51:18;;;;;;;7.37;3.08;;;4.10;99.90;;;;;;459854;258;27627;-69
2022/02/06 08:53:20;;;;;;;6.53;2.90;;;4.10;99.90;;;;;;459861;258;27548;-69
2022/02/06 08:55:21;;;;;;;4.70;2.78;;;4.00;99.90;;;;;;459850;258;27578;-69
2022/02/06 08:57:25;;;;;;;4.70;2.72;;;4.10;99.90;;;;;;459859;258;27467;-70
2022/02/06 08:59:23;;;;;;;3.80;2.42;;;4.10;99.90;;;;;;459868;258;27467;-69
2022/02/06 09:01:25;;;;;;;5.85;2.83;;;4.00;99.90;;;;;;459892;258;27566;-69
2022/02/06 09:03:26;;;;;;;3.62;2.50;;;4.00;99.90;;;;;;459878;258;27471;-69
2022/02/06 09:05:29;;;;;;;4.75;3.03;;;4.10;99.90;;;;;;459852;258;27510;-69
2022/02/06 09:07:28;;;;;;;3.53;2.78;;;4.00;99.90;;;;;;459856;258;27985;-70
2022/02/06 09:09:30;;;;;;;4.43;2.78;;;4.10;99.90;;;;;;459887;258;27954;-70
2022/02/06 09:11:32;;;;;;;4.15;3.05;;;4.10;99.90;;;;;;459916;258;28006;-69
2022/02/06 09:13:32;;;;;;;4.20;2.95;;;4.10;99.90;;;;;;459880;258;28038;-70
2022/02/06 09:15:33;;;;;;;7.45;3.40;;;4.10;99.90;;;;;;459881;258;27989;-69
2022/02/06 09:17:35;;;;;;;5.03;2.85;;;4.10;99.90;;;;;;459896;258;27587;-69
2022/02/06 09:19:37;;;;;;;5.55;2.70;;;4.10;99.90;;;;;;459871;258;27463;-69
2022/02/06 09:21:37;;;;;;;4.43;3.17;;;4.10;99.90;;;;;;459872;258;27607;-69
2022/02/06 09:23:38;;;;;;;3.53;2.50;;;4.10;99.90;;;;;;459843;258;27567;-69
2022/02/06 09:25:40;;;;;;;3.42;2.60;;;4.10;99.90;;;;;;459844;258;27479;-70
2022/02/06 09:27:42;;;;;;;4.75;3.35;;;4.10;99.90;;;;;;459875;258;27492;-69
2022/02/06 09:29:43;;;;;;;7.43;3.28;;;4.10;99.90;;;;;;459865;258;27583;-69
2022/02/06 09:31:49;;;;;;;4.70;2.97;;;4.10;99.90;;;;;;459871;258;27524;-69
2022/02/06 09:35:47;;;;;;;3.63;2.80;;;4.10;99.90;;;;;;459890;258;27702;-69
2022/02/06 09:37:48;;;;;;;5.03;2.90;;;4.10;99.90;;;;;;459862;258;27575;-69
2022/02/06 09:39:49;;;;;;;8.40;2.80;;;4.10;99.90;;;;;;459876;258;27491;-69
2022/02/06 09:41:51;;;;;;;9.02;4.03;;;4.20;99.90;;;;;;459876;258;27529;-69
2022/02/06 09:43:52;;;;;;;3.87;2.83;;;4.10;99.90;;;;;;459839;258;27963;-69
2022/02/06 09:45:53;;;;;;;4.47;2.80;;;4.20;99.90;;;;;;459851;258;28706;-69
2022/02/06 09:47:54;;;;;;;3.15;2.35;;;4.20;99.90;;;;;;459878;258;27933;-69
2022/02/06 09:49:56;;;;;;;7.90;3.25;;;4.30;99.90;;;;;;459851;258;27595;-69
2022/02/06 09:51:57;;;;;;;3.15;2.65;;;4.30;99.90;;;;;;459851;258;27592;-69
2022/02/06 09:53:59;;;;;;;9.18;3.10;;;4.40;99.90;;;;;;459864;258;27498;-69
2022/02/06 09:56:08;;;;;;;8.05;2.85;;;4.40;99.90;;;;;;459847;258;27563;-69
2022/02/06 10:00:14;;;;;;;5.40;3.33;;;4.50;99.90;;;;;;459855;258;28012;-69
2022/02/06 10:02:16;;;;;;;3.50;2.50;;;4.50;99.90;;;;;;459873;258;28066;-71
2022/02/06 10:04:17;;;;;;;3.05;2.50;;;4.50;99.90;;;;;;459849;258;27992;-69
2022/02/06 10:06:18;;;;;;;3.35;2.37;;;4.50;99.90;;;;;;459864;258;28073;-69
2022/02/06 10:08:24;;;;;;;8.00;3.03;;;4.50;99.90;;;;;;459826;258;27479;-69
2022/02/06 10:10:21;;;;;;;5.43;2.67;;;4.50;99.90;;;;;;459841;258;27491;-69
2022/02/06 10:12:22;;;;;;;4.57;2.90;;;4.50;99.90;;;;;;459889;258;27487;-69
2022/02/06 10:14:24;;;;;;;4.85;3.05;;;;;;;;;;459870;258;27588;-70
2022/02/06 10:16:26;;;;;;;6.43;2.80;;;;;;;;;;459865;258;26772;-69
2022/02/06 10:18:28;;;;;;;4.57;3.12;;;4.60;99.90;;;;;;459863;258;26908;-69
2022/02/06 10:20:40;;;;;;;2.58;2.30;;;4.60;99.90;;;;;;459843;258;28059;-69
2022/02/06 10:22:39;;;;;;;8.10;3.40;;;4.60;99.90;;;;;;459854;258;27507;-69
2022/02/06 10:24:36;;;;;;;3.80;2.87;;;4.60;99.90;;;;;;459882;258;27548;-69
2022/02/06 10:26:41;;;;;;;4.05;3.00;;;4.60;99.90;;;;;;459838;258;27528;-69
2022/02/06 10:28:44;;;;;;;7.40;2.70;;;4.60;99.90;;;;;;459865;258;27895;-69
2022/02/06 10:30:44;;;;;;;6.40;3.15;;;4.70;99.90;;;;;;459879;258;27456;-69
2022/02/06 10:32:45;;;;;;;4.32;2.45;;;4.70;99.90;;;;;;459846;258;27573;-69
2022/02/06 10:34:46;;;;;;;2.72;2.42;;;4.70;99.90;;;;;;459885;258;28509;-69
2022/02/06 10:36:47;;;;;;;9.73;3.37;;;4.70;99.90;;;;;;459892;258;28003;-69
2022/02/06 10:38:49;;;;;;;8.05;3.10;;;4.70;99.90;;;;;;459886;258;28064;-69
2022/02/06 10:40:50;;;;;;;3.37;2.78;;;4.70;99.90;;;;;;459885;258;28069;-70
2022/02/06 10:42:51;;;;;;;3.92;2.40;;;4.70;99.90;;;;;;459867;258;27491;-69
2022/02/06 10:44:52;;;;;;;2.87;2.35;;;4.70;99.90;;;;;;459905;258;27563;-70
2022/02/06 10:46:58;;;;;;;7.95;2.50;;;4.80;99.90;;;;;;459871;258;27546;-69
2022/02/06 10:48:58;;;;;;;3.47;2.20;;;4.70;99.90;;;;;;459863;258;27511;-69
2022/02/06 10:50:59;;;;;;;4.95;2.78;;;4.70;99.90;;;;;;459873;258;27593;-68
2022/02/06 10:53:00;;;;;;;7.30;2.30;;;4.70;99.90;;;;;;459856;258;27485;-69
2022/02/06 10:55:02;;;;;;;2.40;2.08;;;4.70;99.90;;;;;;459893;258;27587;-69
2022/02/06 10:57:03;;;;;;;5.47;2.40;;;4.70;99.90;;;;;;459880;258;27585;-69
2022/02/06 10:59:04;;;;;;;3.20;1.98;;;4.60;99.90;;;;;;459883;258;27853;-69
2022/02/06 11:01:05;;;;;;;2.72;2.28;;;4.60;99.90;;;;;;459874;258;28005;-70
2022/02/06 11:03:15;;;;;;;4.28;2.35;;;4.70;99.90;;;;;;459872;258;28053;-69
2022/02/06 11:05:14;;;;;;;2.72;2.47;;;4.70;99.90;;;;;;459905;258;29162;-69
2022/02/06 11:07:11;;;;;;;4.10;2.22;;;4.70;99.90;;;;;;459879;258;27514;-70
2022/02/06 11:09:10;;;;;;;3.42;2.30;;;4.70;99.90;;;;;;459855;258;27550;-69
2022/02/06 11:11:12;;;;;;;2.00;1.90;;;4.70;99.90;;;;;;459868;258;27494;-69
2022/02/06 11:13:13;;;;;;;2.70;2.50;;;4.70;99.90;;;;;;459891;258;27495;-70
2022/02/06 11:15:14;;;;;;;2.15;1.92;;;4.70;99.90;;;;;;459889;258;27495;-70
2022/02/06 11:17:16;;;;;;;2.97;2.25;;;4.70;99.90;;;;;;460322;258;27629;-69
2022/02/06 11:19:22;;;;;;;6.72;2.25;;;4.70;99.90;;;;;;459881;258;27545;-69
2022/02/06 11:21:22;;;;;;;4.00;1.95;;;4.70;99.90;;;;;;459698;258;27966;-69
2022/02/06 11:23:22;;;;;;;5.70;2.33;;;4.70;99.90;;;;;;459845;258;28038;-69
2022/02/06 11:25:23;;;;;;;2.45;2.08;;;4.70;99.90;;;;;;459885;258;27502;-69
2022/02/06 11:27:24;;;;;;;2.20;2.10;;;4.70;99.90;;;;;;459892;258;27572;-69
2022/02/06 11:29:26;;;;;;;5.68;2.12;;;4.70;99.90;;;;;;459868;258;27583;-69
2022/02/06 11:31:28;;;;;;;3.42;2.30;;;4.70;99.90;;;;;;459860;258;27451;-69
2022/02/06 11:33:28;;;;;;;4.18;2.28;;;4.70;99.90;;;;;;459880;258;27510;-69
2022/02/06 11:35:31;;;;;;;4.60;2.20;;;4.70;99.90;;;;;;459900;258;27601;-69
2022/02/06 11:44:29;;;;;;;5.10;2.03;;;4.60;99.90;;;;;;459905;258;27994;-69
2022/02/06 11:46:31;;;;;;;2.25;2.05;;;4.60;99.90;;;;;;460384;258;28078;-69
2022/02/06 11:48:32;;;;;;;2.55;2.28;;;4.50;99.90;;;;;;459911;258;27985;-69
2022/02/06 11:50:34;;;;;;;3.35;2.35;;;4.60;99.90;;;;;;459865;258;27459;-69
2022/02/06 11:52:34;;;;;;;3.47;2.70;;;4.60;99.90;;;;;;459884;258;27486;-69
2022/02/06 11:54:36;;;;;;;3.15;2.92;;;4.50;99.90;;;;;;459884;258;27615;-69
2022/02/06 11:56:38;;;;;;;3.08;2.70;;;4.50;99.90;;;;;;459897;258;27466;-69
2022/02/06 11:58:38;;;;;;;2.22;2.00;;;4.50;99.90;;;;;;459852;258;27506;-69
2022/02/06 12:00:39;;;;;;;3.37;2.30;;;4.40;99.90;;;;;;459852;258;27558;-69
2022/02/06 12:02:41;;;;;;;2.80;1.85;;;4.40;99.90;;;;;;459894;258;27590;-69
2022/02/06 12:04:42;;;;;;;2.03;1.90;;;4.40;99.90;;;;;;459869;258;27514;-69
2022/02/06 12:06:43;;;;;;;4.20;2.37;;;4.40;99.90;;;;;;459868;258;27467;-69
2022/02/06 12:08:44;;;;;;;3.17;2.22;;;4.40;99.90;;;;;;459857;258;27533;-69
2022/02/06 12:10:46;;;;;;;4.00;2.10;;;4.40;99.90;;;;;;459849;258;28809;-69
2022/02/06 12:12:49;;;;;;;4.87;2.75;;;4.40;99.90;;;;;;459896;258;28014;-69
2022/02/06 12:14:53;;;;;;;2.55;2.35;;;4.30;99.90;;;;;;459872;258;28077;-69
2022/02/06 12:16:56;;;;;;;2.67;2.12;;;4.40;99.90;;;;;;459863;258;27471;-69
2022/02/06 12:18:51;;;;;;;3.30;3.10;;;4.30;99.90;;;;;;459887;258;27519;-69
2022/02/06 12:20:53;;;;;;;4.45;3.65;;;4.30;99.90;;;;;;459879;258;27479;-69
2022/02/06 12:22:53;;;;;;;3.40;3.20;;;4.30;99.90;;;;;;459877;258;27466;-69
2022/02/06 12:24:54;;;;;;;2.50;2.40;;;4.30;99.90;;;;;;459874;258;27601;-69
2022/02/06 12:26:56;;;;;;;2.10;2.00;;;4.30;99.90;;;;;;459868;254;27484;-69
2022/02/06 12:28:58;;;;;;;3.08;2.42;;;4.20;99.90;;;;;;459852;258;27506;-69
2022/02/06 12:30:58;;;;;;;3.10;2.05;;;4.20;99.90;;;;;;459846;258;27847;-69
2022/02/06 12:32:59;;;;;;;4.95;1.70;;;4.20;99.90;;;;;;459882;258;27563;-69
2022/02/06 12:37:31;;;;;;;1.52;1.42;;;4.20;99.90;;;;;;459882;258;28053;-69
2022/02/06 12:39:21;;;;;;;1.95;1.85;;;4.10;99.90;;;;;;459736;258;28020;-69
2022/02/06 12:41:25;;;;;;;2.45;1.85;;;4.10;99.90;;;;;;459862;258;28074;-69
2022/02/06 12:43:28;;;;;;;1.45;1.35;;;4.10;99.90;;;;;;459854;258;27507;-69
2022/02/06 12:45:25;;;;;;;1.62;1.52;;;4.10;99.90;;;;;;459851;258;27610;-69
2022/02/06 12:47:26;;;;;;;1.70;1.60;;;4.10;99.90;;;;;;459878;258;27492;-69
2022/02/06 12:49:28;;;;;;;1.65;1.33;;;4.10;99.90;;;;;;459857;258;27613;-69
2022/02/06 12:51:29;;;;;;;2.08;1.40;;;4.00;99.90;;;;;;459868;258;27558;-69
2022/02/06 12:53:30;;;;;;;2.33;1.40;;;4.10;99.90;;;;;;459850;258;27463;-69